Time;durP1;ratioP1;P1;durP2;ratioP2;P2;SDS_P1;SDS_P2;PMS_P1;PMS_P2;Temp;Humidity;BMP_temperature;BMP_pressure;BME280_temperature;BME280_humidity;BME280_pressure;Samples;Min_cycle;Max_cycle;Signal;HPM_P1;HPM_P2
2021/12/13 00:00:54;;;;;;;18.20;16.30;;;7.70;99.90;;;;;;5081988;28;20254;-65
2021/12/13 00:03:31;;;;;;;23.40;17.10;;;7.80;99.90;;;;;;5089668;28;20285;-64
2021/12/13 00:06:06;;;;;;;19.42;16.60;;;7.80;99.90;;;;;;5088229;28;20209;-66
2021/12/13 00:08:36;;;;;;;21.35;18.02;;;7.80;99.90;;;;;;5088838;28;20229;-65
2021/12/13 00:11:10;;;;;;;18.65;16.80;;;7.70;99.90;;;;;;5086690;28;20261;-65
2021/12/13 00:13:43;;;;;;;19.67;17.52;;;7.40;99.90;;;;;;5088398;28;20203;-65
2021/12/13 00:16:13;;;;;;;19.65;16.90;;;7.20;99.90;;;;;;5094505;28;20301;-65
2021/12/13 00:18:47;;;;;;;19.92;17.83;;;7.10;99.90;;;;;;5085251;28;20229;-65
2021/12/13 00:21:23;;;;;;;21.60;18.88;;;6.80;99.90;;;;;;5073783;28;20256;-65
2021/12/13 00:23:55;;;;;;;25.88;20.13;;;6.70;99.90;;;;;;5074009;28;20198;-65
2021/12/13 00:26:27;;;;;;;25.60;19.52;;;6.90;99.90;;;;;;5074713;28;20248;-65
2021/12/13 00:28:55;;;;;;;23.05;18.90;;;7.10;99.90;;;;;;5073668;28;20228;-65
2021/12/13 00:31:29;;;;;;;20.73;18.35;;;7.40;99.90;;;;;;5104798;28;20248;-65
2021/12/13 00:34:12;;;;;;;21.08;18.50;;;7.40;99.90;;;;;;5114344;28;20669;-66
2021/12/13 00:36:43;;;;;;;18.60;16.63;;;7.60;99.90;;;;;;5114412;28;20614;-66
2021/12/13 00:39:15;;;;;;;19.20;17.20;;;7.50;99.90;;;;;;5110106;28;20251;-65
2021/12/13 00:41:46;;;;;;;24.10;19.83;;;7.60;99.90;;;;;;5099179;28;20305;-66
2021/12/13 00:44:18;;;;;;;20.63;17.17;;;7.60;99.90;;;;;;5104159;28;20273;-66
2021/12/13 00:46:48;;;;;;;22.10;16.90;;;7.40;99.90;;;;;;5093805;28;20215;-66
2021/12/13 00:49:21;;;;;;;22.25;17.17;;;7.40;99.90;;;;;;5093434;28;20202;-65
2021/12/13 00:51:53;;;;;;;24.63;20.27;;;7.30;99.90;;;;;;5093756;28;20309;-65
2021/12/13 00:54:24;;;;;;;23.70;19.45;;;7.40;99.90;;;;;;5093876;28;20222;-65
2021/12/13 00:57:33;;;;;;;19.58;17.00;;;7.50;99.90;;;;;;5093454;28;20226;-66
2021/12/13 01:00:04;;;;;;;24.25;17.52;;;7.60;99.90;;;;;;5092046;28;20231;-65
2021/12/13 01:02:40;;;;;;;20.67;18.52;;;7.80;99.90;;;;;;5077933;28;20292;-65
2021/12/13 01:05:12;;;;;;;18.58;16.02;;;7.80;99.90;;;;;;5073234;28;20748;-65
2021/12/13 01:08:11;;;;;;;22.60;17.40;;;7.80;99.90;;;;;;5091925;28;20281;-64
2021/12/13 01:11:12;;;;;;;22.25;17.73;;;7.90;99.90;;;;;;5097452;28;20221;-64
2021/12/13 01:14:04;;;;;;;20.40;17.92;;;7.90;99.90;;;;;;5037479;28;20296;-64
2021/12/13 01:16:50;;;;;;;21.88;17.95;;;7.90;99.90;;;;;;5091926;28;20711;-64
2021/12/13 01:19:28;;;;;;;20.73;16.40;;;7.80;99.90;;;;;;5090491;28;20206;-64
2021/12/13 01:22:26;;;;;;;24.00;19.42;;;7.90;99.90;;;;;;5090760;28;20222;-64
2021/12/13 01:25:18;;;;;;;24.27;16.90;;;7.50;99.90;;;;;;5082249;28;20256;-64
2021/12/13 01:27:50;;;;;;;22.08;17.25;;;7.50;99.90;;;;;;5093624;28;20252;-64
2021/12/13 01:30:22;;;;;;;21.95;16.67;;;7.40;99.90;;;;;;5093830;28;20257;-64
2021/12/13 01:32:55;;;;;;;25.05;18.88;;;7.20;99.90;;;;;;5093764;28;20315;-63
2021/12/13 01:35:39;;;;;;;19.15;17.13;;;7.10;99.90;;;;;;5094388;28;20689;-64
2021/12/13 01:38:12;;;;;;;24.75;18.33;;;6.90;99.90;;;;;;5087624;28;20219;-64
2021/12/13 01:40:44;;;;;;;24.80;17.35;;;6.80;99.90;;;;;;5097539;28;20334;-64
2021/12/13 01:43:19;;;;;;;22.15;17.13;;;6.70;99.90;;;;;;5093771;28;20643;-64
2021/12/13 01:45:50;;;;;;;22.00;18.67;;;6.80;99.90;;;;;;5084842;28;20653;-64
2021/12/13 01:48:24;;;;;;;18.95;17.00;;;6.80;99.90;;;;;;5092746;28;20196;-64
2021/12/13 01:51:04;;;;;;;23.23;18.10;;;6.80;99.90;;;;;;5072312;28;20779;-64
2021/12/13 01:53:40;;;;;;;21.67;17.08;;;6.90;99.90;;;;;;5072712;28;20215;-64
2021/12/13 01:56:34;;;;;;;21.75;16.10;;;6.60;99.90;;;;;;5073376;28;20234;-64
2021/12/13 01:59:04;;;;;;;19.40;17.30;;;6.70;99.90;;;;;;5089816;28;20277;-64
2021/12/13 02:01:33;;;;;;;19.38;17.02;;;6.60;99.90;;;;;;5119573;22;20733;-65
2021/12/13 02:04:05;;;;;;;18.63;16.83;;;6.60;99.90;;;;;;5111935;28;20201;-65
2021/12/13 02:06:37;;;;;;;22.85;17.42;;;6.90;99.90;;;;;;5112560;28;20205;-65
2021/12/13 02:09:11;;;;;;;20.88;15.38;;;6.70;99.90;;;;;;5112594;28;20229;-65
2021/12/13 02:11:41;;;;;;;22.00;15.43;;;6.60;99.90;;;;;;5112052;28;20225;-65
2021/12/13 02:14:15;;;;;;;19.33;16.23;;;6.80;99.90;;;;;;5112613;28;20674;-65
2021/12/13 02:16:57;;;;;;;21.70;17.05;;;7.00;99.90;;;;;;5112446;28;20297;-65
2021/12/13 02:19:32;;;;;;;19.25;15.57;;;7.00;99.90;;;;;;5111099;28;20194;-63
2021/12/13 02:22:09;;;;;;;16.85;15.25;;;6.90;99.90;;;;;;5112168;28;20252;-65
2021/12/13 02:24:40;;;;;;;18.60;15.43;;;6.70;99.90;;;;;;5112000;28;20247;-65
2021/12/13 02:27:08;;;;;;;18.83;16.13;;;6.50;99.90;;;;;;5112244;28;20255;-65
2021/12/13 02:29:37;;;;;;;19.92;17.08;;;6.40;99.90;;;;;;5109192;28;20698;-64
2021/12/13 02:32:08;;;;;;;19.55;16.23;;;6.60;99.90;;;;;;5106395;28;20238;-65
2021/12/13 02:34:38;;;;;;;22.13;16.02;;;6.90;99.90;;;;;;5111007;28;20204;-65
2021/12/13 02:37:09;;;;;;;17.90;16.05;;;6.90;99.90;;;;;;5110378;28;20590;-65
2021/12/13 02:39:44;;;;;;;16.42;14.82;;;6.90;99.90;;;;;;5111805;28;20285;-65
2021/12/13 02:42:15;;;;;;;17.80;15.73;;;6.90;99.90;;;;;;5111754;28;20619;-65
2021/12/13 02:44:46;;;;;;;16.13;12.75;;;6.80;99.90;;;;;;5112000;28;20670;-65
2021/12/13 02:47:18;;;;;;;20.25;16.27;;;6.70;99.90;;;;;;5093907;28;20293;-65
2021/12/13 02:49:47;;;;;;;19.02;15.50;;;6.60;99.90;;;;;;5111591;28;20225;-65
2021/12/13 02:52:18;;;;;;;17.95;14.90;;;6.80;99.90;;;;;;5111256;28;20757;-65
2021/12/13 02:54:51;;;;;;;22.73;15.27;;;6.80;99.90;;;;;;5112136;28;20198;-65
2021/12/13 02:57:22;;;;;;;17.55;15.25;;;7.00;99.90;;;;;;5111738;28;20221;-64
2021/12/13 02:59:53;;;;;;;17.38;15.52;;;7.20;99.90;;;;;;5111758;28;20235;-66
2021/12/13 03:02:25;;;;;;;17.67;15.80;;;7.10;99.90;;;;;;5111829;28;20216;-65
2021/12/13 03:04:57;;;;;;;16.98;15.18;;;6.80;99.90;;;;;;5111888;28;20681;-64
2021/12/13 03:07:30;;;;;;;18.60;16.25;;;6.60;99.90;;;;;;5112137;28;20190;-65
2021/12/13 03:10:04;;;;;;;20.42;16.13;;;6.50;99.90;;;;;;5111783;28;20190;-65
2021/12/13 03:12:32;;;;;;;23.88;16.58;;;6.30;99.90;;;;;;5111054;28;20213;-63
2021/12/13 03:15:09;;;;;;;23.30;17.25;;;6.20;99.90;;;;;;5111590;28;20277;-65
2021/12/13 03:17:42;;;;;;;20.08;17.98;;;6.10;99.90;;;;;;5111756;28;20222;-63
2021/12/13 03:20:33;;;;;;;19.65;17.58;;;6.10;99.90;;;;;;5111603;28;20245;-64
2021/12/13 03:23:30;;;;;;;23.85;20.27;;;6.00;99.90;;;;;;5111617;28;20289;-64
2021/12/13 03:26:24;;;;;;;22.27;19.88;;;6.10;99.90;;;;;;5098903;28;20245;-65
2021/12/13 03:29:02;;;;;;;23.75;21.10;;;6.00;99.90;;;;;;5111314;28;20744;-65
2021/12/13 03:31:35;;;;;;;22.25;19.85;;;5.90;99.90;;;;;;5102834;28;20297;-67
2021/12/13 03:34:07;;;;;;;21.83;19.52;;;5.90;99.90;;;;;;5115475;28;20214;-64
2021/12/13 03:36:45;;;;;;;22.98;20.38;;;6.00;99.90;;;;;;5115595;28;20221;-65
2021/12/13 03:39:16;;;;;;;23.88;19.15;;;6.10;99.90;;;;;;5103961;28;20276;-66
2021/12/13 03:41:49;;;;;;;22.83;20.48;;;6.30;99.90;;;;;;5111361;28;20655;-63
2021/12/13 03:44:20;;;;;;;21.15;18.88;;;6.50;99.90;;;;;;5112484;28;20198;-66
2021/12/13 03:46:52;;;;;;;20.27;18.30;;;6.60;99.90;;;;;;5095226;28;20194;-63
2021/12/13 03:49:24;;;;;;;19.90;17.75;;;6.70;99.90;;;;;;5094768;28;20194;-64
2021/12/13 03:51:57;;;;;;;18.73;16.35;;;6.80;99.90;;;;;;5100223;28;20243;-65
2021/12/13 03:54:29;;;;;;;23.27;17.73;;;6.80;99.90;;;;;;5115112;28;20238;-64
2021/12/13 03:56:58;;;;;;;18.20;15.43;;;6.90;99.90;;;;;;5115035;28;20190;-64
2021/12/13 03:59:28;;;;;;;18.63;16.45;;;6.80;99.90;;;;;;5114680;28;20331;-65
2021/12/13 04:02:00;;;;;;;22.83;18.73;;;6.80;99.90;;;;;;5114618;28;20643;-66
2021/12/13 04:04:34;;;;;;;19.63;16.77;;;6.70;99.90;;;;;;5115219;28;20198;-65
2021/12/13 04:07:08;;;;;;;19.02;15.60;;;6.70;99.90;;;;;;5115081;28;20229;-63
2021/12/13 04:09:36;;;;;;;18.15;15.43;;;6.50;99.90;;;;;;5113260;28;20233;-64
2021/12/13 04:12:08;;;;;;;19.20;15.88;;;6.50;99.90;;;;;;5112016;28;20569;-65
2021/12/13 04:14:41;;;;;;;19.77;16.73;;;6.60;99.90;;;;;;5114428;28;20213;-65
2021/12/13 04:17:33;;;;;;;19.77;17.63;;;6.60;99.90;;;;;;5114620;28;20255;-66
2021/12/13 04:20:04;;;;;;;24.92;18.85;;;6.40;99.90;;;;;;5114411;28;20225;-65
2021/12/13 04:22:34;;;;;;;22.90;20.50;;;6.10;99.90;;;;;;5114442;28;20190;-65
2021/12/13 04:25:07;;;;;;;25.42;19.95;;;5.90;99.90;;;;;;5114808;28;20277;-65
2021/12/13 04:27:40;;;;;;;26.02;19.98;;;5.90;99.90;;;;;;5114663;28;20574;-65
2021/12/13 04:30:17;;;;;;;31.35;24.48;;;5.90;99.90;;;;;;5114228;28;20245;-66
2021/12/13 04:32:51;;;;;;;30.27;20.27;;;5.80;99.90;;;;;;5113875;28;20233;-65
2021/12/13 04:35:19;;;;;;;28.23;23.05;;;5.80;99.90;;;;;;5114010;28;20600;-65
2021/12/13 04:37:49;;;;;;;32.13;24.08;;;5.80;99.90;;;;;;5114409;28;20231;-65
2021/12/13 04:40:20;;;;;;;29.95;23.40;;;5.90;99.90;;;;;;5113107;28;20266;-64
2021/12/13 04:42:55;;;;;;;27.17;20.98;;;5.90;99.90;;;;;;5100495;28;20199;-65
2021/12/13 04:45:24;;;;;;;31.02;22.75;;;6.00;99.90;;;;;;5103154;28;20201;-65
2021/12/13 04:47:58;;;;;;;25.85;21.60;;;6.10;99.90;;;;;;5114113;28;20225;-65
2021/12/13 04:50:30;;;;;;;28.58;20.85;;;6.00;99.90;;;;;;5113857;28;20245;-65
2021/12/13 04:52:59;;;;;;;24.67;20.10;;;6.10;99.90;;;;;;5113843;28;20228;-65
2021/12/13 04:55:30;;;;;;;24.30;20.58;;;6.30;99.90;;;;;;5113910;28;20331;-65
2021/12/13 04:58:05;;;;;;;25.98;19.67;;;6.40;99.90;;;;;;5114163;28;20648;-66
2021/12/13 05:00:37;;;;;;;24.40;18.15;;;6.60;99.90;;;;;;5113431;28;20257;-65
2021/12/13 05:03:07;;;;;;;25.58;17.95;;;6.60;99.90;;;;;;5113653;28;20199;-65
2021/12/13 05:05:39;;;;;;;20.77;15.52;;;6.80;99.90;;;;;;5113285;28;20205;-64
2021/12/13 05:08:10;;;;;;;18.15;15.77;;;6.80;99.90;;;;;;5095047;28;20229;-66
2021/12/13 05:10:38;;;;;;;19.63;16.60;;;6.80;99.90;;;;;;5103014;28;20595;-65
2021/12/13 05:13:11;;;;;;;18.25;15.20;;;6.70;99.90;;;;;;5113310;28;20222;-65
2021/12/13 05:15:41;;;;;;;15.32;13.52;;;6.80;99.90;;;;;;5113707;28;20198;-64
2021/12/13 05:18:18;;;;;;;19.67;15.30;;;6.90;99.90;;;;;;5113291;28;20229;-65
2021/12/13 05:20:46;;;;;;;21.90;15.23;;;7.10;99.90;;;;;;5113285;28;20237;-66
2021/12/13 05:23:21;;;;;;;22.17;14.77;;;7.10;99.90;;;;;;5113631;28;20206;-65
2021/12/13 05:25:53;;;;;;;19.13;14.18;;;7.20;99.90;;;;;;5112951;28;20193;-65
2021/12/13 05:28:28;;;;;;;16.60;14.65;;;7.40;99.90;;;;;;5113285;28;20225;-65
2021/12/13 05:31:00;;;;;;;16.25;13.52;;;7.50;99.90;;;;;;5112868;28;20252;-65
2021/12/13 05:33:34;;;;;;;15.07;12.68;;;7.60;99.90;;;;;;5113037;28;20199;-64
2021/12/13 05:36:05;;;;;;;14.10;12.70;;;7.70;99.90;;;;;;5113190;28;20231;-65
2021/12/13 05:38:35;;;;;;;14.57;12.30;;;7.80;99.90;;;;;;5113055;28;20264;-66
2021/12/13 05:41:07;;;;;;;16.80;13.65;;;7.90;99.90;;;;;;5112027;28;20636;-66
2021/12/13 05:43:41;;;;;;;14.65;11.73;;;7.90;99.90;;;;;;5112943;28;20229;-65
2021/12/13 05:46:11;;;;;;;18.48;13.07;;;8.00;99.90;;;;;;5107636;28;20277;-66
2021/12/13 05:48:45;;;;;;;14.15;12.65;;;7.90;99.90;;;;;;5102639;28;20990;-64
2021/12/13 05:51:24;;;;;;;16.45;13.43;;;7.70;99.90;;;;;;5104315;27;20217;-65
2021/12/13 05:53:59;;;;;;;18.95;14.40;;;7.30;99.90;;;;;;5111098;28;20667;-63
2021/12/13 05:56:33;;;;;;;17.38;14.02;;;7.20;99.90;;;;;;5102438;28;20739;-65
2021/12/13 05:59:13;;;;;;;16.77;14.70;;;6.90;99.90;;;;;;5109367;28;20198;-65
2021/12/13 06:01:55;;;;;;;14.50;13.05;;;6.70;99.90;;;;;;5107995;28;20252;-65
2021/12/13 06:04:31;;;;;;;18.45;14.82;;;6.50;99.90;;;;;;5110788;28;20201;-66
2021/12/13 06:06:59;;;;;;;17.33;14.50;;;6.60;99.90;;;;;;5111138;28;20276;-64
2021/12/13 06:09:46;;;;;;;18.75;16.67;;;6.60;99.90;;;;;;5111021;28;20567;-64
2021/12/13 06:12:17;;;;;;;19.38;14.57;;;6.90;99.90;;;;;;5111159;28;20602;-64
2021/12/13 06:14:46;;;;;;;17.73;15.95;;;7.10;99.90;;;;;;5111254;28;20753;-64
2021/12/13 06:17:19;;;;;;;15.52;14.13;;;7.20;99.90;;;;;;5111179;28;20244;-65
2021/12/13 06:19:57;;;;;;;15.43;13.90;;;7.10;99.90;;;;;;5111052;28;20229;-64
2021/12/13 06:22:28;;;;;;;15.80;13.90;;;7.10;99.90;;;;;;5110695;28;20668;-64
2021/12/13 06:25:00;;;;;;;15.63;14.02;;;6.90;99.90;;;;;;5109624;28;20243;-65
2021/12/13 06:27:30;;;;;;;15.68;14.07;;;6.90;99.90;;;;;;5104883;28;20194;-64
2021/12/13 06:30:07;;;;;;;17.20;14.98;;;6.90;99.90;;;;;;5111878;28;20273;-65
2021/12/13 06:32:40;;;;;;;17.48;15.88;;;6.60;99.90;;;;;;5094836;28;20256;-66
2021/12/13 06:35:32;;;;;;;15.32;13.57;;;6.50;99.90;;;;;;5091932;28;20260;-65
2021/12/13 06:38:22;;;;;;;16.38;13.20;;;6.60;99.90;;;;;;5091913;28;20655;-64
2021/12/13 06:40:52;;;;;;;16.85;15.10;;;6.70;99.90;;;;;;5102896;28;20245;-65
2021/12/13 06:43:27;;;;;;;18.00;16.08;;;6.70;99.90;;;;;;5111837;28;20194;-64
2021/12/13 06:45:58;;;;;;;23.75;16.00;;;6.90;99.90;;;;;;5091742;28;20232;-64
2021/12/13 06:48:39;;;;;;;19.48;17.33;;;7.20;99.90;;;;;;5091874;28;20863;-63
2021/12/13 06:51:10;;;;;;;21.00;17.48;;;7.20;99.90;;;;;;5105515;28;20256;-64
2021/12/13 06:53:38;;;;;;;17.58;15.75;;;7.40;99.90;;;;;;5111816;28;20190;-64
2021/12/13 06:56:22;;;;;;;18.67;14.23;;;7.50;99.90;;;;;;5108479;28;20230;-64
2021/12/13 06:58:53;;;;;;;20.75;17.83;;;7.60;99.90;;;;;;5094934;28;20228;-65
2021/12/13 07:01:22;;;;;;;18.90;16.50;;;7.70;99.90;;;;;;5111416;28;20257;-64
2021/12/13 07:03:59;;;;;;;16.35;14.70;;;7.60;99.90;;;;;;5112226;28;20198;-65
2021/12/13 07:06:28;;;;;;;18.63;14.52;;;7.40;99.90;;;;;;5094044;28;20239;-66
2021/12/13 07:09:08;;;;;;;18.75;15.38;;;7.30;99.90;;;;;;5104242;28;20276;-65
2021/12/13 07:11:44;;;;;;;16.25;14.45;;;7.20;99.90;;;;;;5115557;28;20249;-65
2021/12/13 07:14:14;;;;;;;18.73;16.80;;;7.20;99.90;;;;;;5115473;28;20273;-66
2021/12/13 07:16:47;;;;;;;19.27;17.38;;;7.10;99.90;;;;;;5116031;28;20209;-66
2021/12/13 07:19:22;;;;;;;18.50;14.93;;;6.90;99.90;;;;;;5115634;28;20224;-65
2021/12/13 07:21:54;;;;;;;16.67;14.93;;;6.80;99.90;;;;;;5115287;28;20635;-65
2021/12/13 07:24:33;;;;;;;18.25;14.68;;;6.60;99.90;;;;;;5114849;28;20615;-67
2021/12/13 07:27:06;;;;;;;17.77;14.93;;;6.50;99.90;;;;;;5114656;28;20217;-66
2021/12/13 07:29:42;;;;;;;20.35;15.88;;;6.50;99.90;;;;;;5115739;28;20189;-66
2021/12/13 07:32:16;;;;;;;20.27;16.05;;;6.30;99.90;;;;;;5115317;28;20220;-66
2021/12/13 07:35:04;;;;;;;25.65;18.70;;;6.20;99.90;;;;;;5115018;28;20244;-66
2021/12/13 07:37:43;;;;;;;21.33;18.00;;;6.10;99.90;;;;;;5115584;28;20198;-67
2021/12/13 07:40:27;;;;;;;23.98;20.15;;;6.10;99.90;;;;;;5115382;28;20221;-66
2021/12/13 07:43:13;;;;;;;23.77;21.00;;;6.10;99.90;;;;;;5108195;28;20190;-67
2021/12/13 07:45:46;;;;;;;21.05;18.77;;;6.10;99.90;;;;;;5115514;28;20240;-66
2021/12/13 07:48:19;;;;;;;22.65;18.83;;;6.10;99.90;;;;;;5115275;28;20228;-68
2021/12/13 07:50:59;;;;;;;24.63;20.80;;;6.10;99.90;;;;;;5114624;28;20644;-67
2021/12/13 07:53:28;;;;;;;25.00;19.27;;;6.00;99.90;;;;;;5115296;28;20193;-66
2021/12/13 07:55:56;;;;;;;31.80;27.35;;;5.90;99.90;;;;;;5115059;28;20246;-66
2021/12/13 07:58:35;;;;;;;25.95;21.52;;;5.90;99.90;;;;;;5115153;28;20658;-66
2021/12/13 08:01:17;;;;;;;23.20;20.80;;;5.90;99.90;;;;;;5120525;22;20273;-65
2021/12/13 08:03:51;;;;;;;21.08;18.05;;;5.90;99.90;;;;;;5081994;28;20655;-62
2021/12/13 08:06:21;;;;;;;23.50;18.58;;;5.90;99.90;;;;;;5074612;28;20230;-62
2021/12/13 08:08:53;;;;;;;21.33;18.85;;;5.90;99.90;;;;;;5074918;28;20230;-63
2021/12/13 08:11:41;;;;;;;24.88;19.30;;;6.00;99.90;;;;;;5074575;28;20318;-62
2021/12/13 08:14:10;;;;;;;23.00;19.55;;;5.90;99.90;;;;;;5074810;28;20287;-63
2021/12/13 08:16:41;;;;;;;25.45;20.90;;;5.90;99.90;;;;;;5076154;28;20246;-63
2021/12/13 08:19:15;;;;;;;23.35;20.88;;;6.00;99.90;;;;;;5074862;28;20231;-62
2021/12/13 08:21:47;;;;;;;24.15;19.55;;;6.10;99.90;;;;;;5074773;28;20257;-63
2021/12/13 08:24:26;;;;;;;22.05;19.67;;;6.10;99.90;;;;;;5074958;28;20234;-63
2021/12/13 08:27:03;;;;;;;21.85;19.17;;;6.20;99.90;;;;;;5074446;28;20278;-63
2021/12/13 08:29:34;;;;;;;21.92;19.63;;;6.30;99.90;;;;;;5074688;28;20215;-63
2021/12/13 08:32:08;;;;;;;20.70;18.35;;;6.30;99.90;;;;;;5074898;28;20251;-63
2021/12/13 08:34:40;;;;;;;20.98;18.33;;;6.30;99.90;;;;;;5074990;28;20234;-63
2021/12/13 08:37:25;;;;;;;21.75;17.15;;;6.40;99.90;;;;;;5074382;28;20674;-63
2021/12/13 08:39:58;;;;;;;21.85;19.55;;;6.40;99.90;;;;;;5074521;28;20252;-63
2021/12/13 08:42:31;;;;;;;23.20;19.65;;;6.60;99.90;;;;;;5074187;28;20310;-62
2021/12/13 08:45:07;;;;;;;25.10;20.35;;;6.50;99.90;;;;;;5074151;28;20227;-63
2021/12/13 08:47:40;;;;;;;23.33;19.88;;;6.70;99.90;;;;;;5094281;28;20675;-63
2021/12/13 08:50:15;;;;;;;22.20;20.00;;;6.70;99.90;;;;;;5094147;28;20203;-63
2021/12/13 08:52:46;;;;;;;23.67;20.85;;;6.70;99.90;;;;;;5093905;28;20244;-62
2021/12/13 08:55:23;;;;;;;22.02;19.58;;;6.60;99.90;;;;;;5094219;28;20679;-63
2021/12/13 08:57:55;;;;;;;21.55;18.13;;;6.60;99.90;;;;;;5081849;28;20282;-63
2021/12/13 09:00:40;;;;;;;19.23;17.23;;;6.70;99.90;;;;;;5074011;28;20628;-62
2021/12/13 09:03:28;;;;;;;22.70;19.17;;;6.70;99.90;;;;;;5074017;28;20253;-63
2021/12/13 09:06:08;;;;;;;18.73;16.92;;;6.70;99.90;;;;;;5073872;28;20191;-65
2021/12/13 09:08:40;;;;;;;21.73;18.08;;;6.80;99.90;;;;;;5074156;28;20252;-63
2021/12/13 09:11:21;;;;;;;19.98;16.83;;;6.80;99.90;;;;;;5073783;28;20219;-60
2021/12/13 09:13:52;;;;;;;19.10;16.42;;;6.80;99.90;;;;;;5066705;28;20203;-63
2021/12/13 09:16:26;;;;;;;19.58;17.48;;;6.90;99.90;;;;;;5073935;28;20246;-63
2021/12/13 09:19:11;;;;;;;18.17;16.33;;;6.90;99.90;;;;;;5074296;28;20199;-63
2021/12/13 09:21:55;;;;;;;18.60;16.63;;;7.10;99.90;;;;;;5073517;28;20254;-63
2021/12/13 09:24:37;;;;;;;19.88;16.80;;;7.10;99.90;;;;;;5088709;28;20198;-63
2021/12/13 09:27:25;;;;;;;17.67;15.90;;;7.20;99.90;;;;;;5093860;28;20604;-63
2021/12/13 09:30:03;;;;;;;16.08;14.13;;;7.30;99.90;;;;;;5093574;28;20222;-63
2021/12/13 09:32:37;;;;;;;15.50;14.00;;;7.30;99.90;;;;;;5092868;28;20215;-63
2021/12/13 09:35:35;;;;;;;16.90;15.20;;;7.30;99.90;;;;;;5093575;28;20194;-62
2021/12/13 09:38:43;;;;;;;16.45;14.45;;;7.30;99.90;;;;;;5093764;28;20239;-63
2021/12/13 09:41:32;;;;;;;15.68;14.27;;;7.40;99.90;;;;;;5078782;28;20215;-62
2021/12/13 09:44:16;;;;;;;17.45;15.75;;;7.40;99.90;;;;;;5067029;28;20278;-62
2021/12/13 09:46:48;;;;;;;16.48;14.38;;;7.40;99.90;;;;;;5072861;28;20241;-62
2021/12/13 09:49:27;;;;;;;17.38;15.63;;;7.40;99.90;;;;;;5073405;28;20236;-63
2021/12/13 09:52:02;;;;;;;17.30;14.95;;;7.30;99.90;;;;;;5072905;28;20215;-63
2021/12/13 09:54:37;;;;;;;18.65;15.52;;;7.40;99.90;;;;;;5072835;28;20229;-63
2021/12/13 09:57:10;;;;;;;14.75;13.32;;;7.50;99.90;;;;;;5076826;28;20234;-62
2021/12/13 09:59:59;;;;;;;15.25;13.15;;;7.60;99.90;;;;;;5093030;28;20197;-63
2021/12/13 10:02:31;;;;;;;16.67;13.77;;;7.70;99.90;;;;;;5092454;28;20318;-63
2021/12/13 10:05:04;;;;;;;15.13;13.63;;;7.80;99.90;;;;;;5093418;28;20194;-63
2021/12/13 10:07:36;;;;;;;16.45;14.75;;;7.90;99.90;;;;;;5085175;28;20195;-63
2021/12/13 10:10:10;;;;;;;15.43;13.93;;;8.10;99.90;;;;;;5072579;28;20647;-63
2021/12/13 10:12:44;;;;;;;15.60;14.00;;;8.10;99.90;;;;;;5070618;28;20246;-63
2021/12/13 10:15:18;;;;;;;15.32;13.70;;;8.00;99.90;;;;;;5072352;28;20233;-62
2021/12/13 10:17:50;;;;;;;14.63;13.05;;;8.20;99.90;;;;;;5052470;28;20265;-63
2021/12/13 10:20:21;;;;;;;13.85;11.70;;;8.10;99.90;;;;;;5052495;28;20278;-63
2021/12/13 10:22:54;;;;;;;16.05;14.48;;;8.20;99.90;;;;;;5063765;28;20594;-63
2021/12/13 10:25:27;;;;;;;15.80;14.13;;;8.40;99.90;;;;;;5072272;28;20256;-65
2021/12/13 10:27:56;;;;;;;12.85;11.43;;;8.70;99.90;;;;;;5072706;28;20723;-63
2021/12/13 10:30:29;;;;;;;13.55;12.35;;;8.60;99.90;;;;;;5072627;28;20294;-64
2021/12/13 10:32:58;;;;;;;11.90;10.65;;;8.70;99.90;;;;;;5072771;28;20286;-63
2021/12/13 10:35:30;;;;;;;14.25;12.85;;;8.60;99.90;;;;;;5072642;28;20573;-64
2021/12/13 10:38:05;;;;;;;14.65;13.15;;;8.60;99.90;;;;;;5072684;28;20741;-63
2021/12/13 10:40:39;;;;;;;14.27;12.98;;;8.50;99.90;;;;;;5071482;28;20613;-63
2021/12/13 10:43:10;;;;;;;15.50;12.98;;;8.30;99.90;;;;;;5071951;28;20286;-63
2021/12/13 10:45:41;;;;;;;13.50;12.20;;;8.20;99.90;;;;;;5072069;28;20278;-64
2021/12/13 10:48:12;;;;;;;13.98;12.60;;;8.10;99.90;;;;;;5071770;28;20714;-63
2021/12/13 10:50:44;;;;;;;15.07;13.02;;;8.20;99.90;;;;;;5072518;28;20234;-63
2021/12/13 10:53:17;;;;;;;12.82;11.52;;;8.30;99.90;;;;;;5092682;28;20241;-64
2021/12/13 10:55:51;;;;;;;14.55;13.13;;;8.50;99.90;;;;;;5092988;28;20293;-64
2021/12/13 10:58:22;;;;;;;13.85;12.45;;;8.50;99.90;;;;;;5092759;28;20309;-63
2021/12/13 11:00:54;;;;;;;10.98;9.90;;;8.60;99.90;;;;;;5091097;28;20743;-64
2021/12/13 11:03:24;;;;;;;14.45;12.50;;;8.50;99.90;;;;;;5092355;28;20198;-64
2021/12/13 11:05:58;;;;;;;12.70;11.50;;;8.40;99.90;;;;;;5092680;28;20766;-63
2021/12/13 11:08:29;;;;;;;12.55;11.25;;;8.30;99.90;;;;;;5092682;28;20273;-64
2021/12/13 11:11:03;;;;;;;12.95;11.68;;;8.30;99.90;;;;;;5090388;28;20305;-63
2021/12/13 11:13:36;;;;;;;13.90;12.38;;;8.30;99.90;;;;;;5072074;28;20230;-63
2021/12/13 11:16:08;;;;;;;13.95;12.45;;;8.30;99.90;;;;;;5072114;28;20234;-64
2021/12/13 11:18:36;;;;;;;13.75;12.27;;;8.30;99.90;;;;;;5071822;28;20222;-64
2021/12/13 11:21:11;;;;;;;13.45;12.15;;;8.20;99.90;;;;;;5089373;28;20771;-64
2021/12/13 11:23:39;;;;;;;14.38;12.88;;;8.20;99.90;;;;;;5092107;28;20221;-64
2021/12/13 11:26:13;;;;;;;12.18;11.07;;;8.30;99.90;;;;;;5091959;28;20195;-64
2021/12/13 11:28:43;;;;;;;12.90;11.65;;;8.30;99.90;;;;;;5092569;28;20199;-64
2021/12/13 11:31:15;;;;;;;13.85;12.48;;;8.30;99.90;;;;;;5091301;28;20230;-64
2021/12/13 11:34:19;;;;;;;13.00;11.80;;;8.30;99.90;;;;;;5091923;28;20190;-63
2021/12/13 11:37:33;;;;;;;13.48;12.02;;;8.30;99.90;;;;;;5092124;28;20721;-64
2021/12/13 11:40:16;;;;;;;12.52;11.32;;;8.40;99.90;;;;;;5083337;28;20259;-64
2021/12/13 11:43:18;;;;;;;11.90;10.80;;;8.40;99.90;;;;;;5071558;28;20269;-64
2021/12/13 11:46:19;;;;;;;12.05;10.82;;;8.30;99.90;;;;;;5071790;28;20670;-64
2021/12/13 11:49:08;;;;;;;14.23;11.82;;;8.40;99.90;;;;;;5071941;28;20560;-64
2021/12/13 11:51:56;;;;;;;11.00;10.05;;;8.40;99.90;;;;;;5052620;28;20251;-64
2021/12/13 11:54:55;;;;;;;11.95;10.75;;;8.60;99.90;;;;;;5055744;28;20262;-62
2021/12/13 11:57:55;;;;;;;11.30;10.20;;;8.60;99.90;;;;;;5055511;28;20747;-63
2021/12/13 12:00:37;;;;;;;11.30;10.30;;;8.70;99.90;;;;;;5066382;28;20233;-64
2021/12/13 12:03:59;;;;;;;10.50;9.50;;;8.60;99.90;;;;;;5074888;28;20213;-63
2021/12/13 12:07:08;;;;;;;11.70;10.50;;;8.60;99.90;;;;;;5074870;28;20234;-64
2021/12/13 12:10:05;;;;;;;11.93;10.60;;;8.60;99.90;;;;;;5075191;28;20230;-64
2021/12/13 12:12:51;;;;;;;12.70;11.50;;;8.50;99.90;;;;;;5074168;28;20330;-63
2021/12/13 12:15:20;;;;;;;12.52;11.25;;;8.50;99.90;;;;;;5074840;28;20195;-64
2021/12/13 12:17:51;;;;;;;12.43;11.20;;;8.40;99.90;;;;;;5073361;28;20302;-64
2021/12/13 12:20:24;;;;;;;13.77;12.48;;;8.40;99.90;;;;;;5074204;28;20192;-62
2021/12/13 12:22:54;;;;;;;15.52;12.77;;;8.40;99.90;;;;;;5053924;28;20227;-64
2021/12/13 12:25:25;;;;;;;12.95;11.43;;;8.40;99.90;;;;;;5054387;28;20274;-64
2021/12/13 12:27:57;;;;;;;13.88;12.48;;;8.40;99.90;;;;;;5054151;28;20238;-64
2021/12/13 12:30:28;;;;;;;13.20;11.98;;;8.40;99.90;;;;;;5054842;28;20242;-64
2021/12/13 12:33:06;;;;;;;12.65;11.40;;;8.40;99.90;;;;;;5054053;28;20688;-64
2021/12/13 12:35:38;;;;;;;13.70;12.32;;;8.40;99.90;;;;;;5054341;28;20568;-64
2021/12/13 12:38:42;;;;;;;14.23;12.80;;;8.50;99.90;;;;;;5053917;28;20239;-64
2021/12/13 12:41:44;;;;;;;15.02;13.43;;;8.50;99.90;;;;;;5024220;28;20233;-61
2021/12/13 12:44:38;;;;;;;14.95;13.32;;;8.50;99.90;;;;;;5070253;28;20298;-64
2021/12/13 12:47:06;;;;;;;14.40;12.68;;;8.30;99.90;;;;;;5074369;28;20227;-64
2021/12/13 12:49:36;;;;;;;14.82;13.15;;;8.30;99.90;;;;;;5073889;28;20686;-64
2021/12/13 12:52:08;;;;;;;16.05;14.35;;;8.30;99.90;;;;;;5073790;28;20219;-64
2021/12/13 12:54:38;;;;;;;18.27;16.00;;;8.30;99.90;;;;;;5073877;28;20223;-63
2021/12/13 12:57:06;;;;;;;13.85;12.52;;;8.30;99.90;;;;;;5073626;28;20226;-64
2021/12/13 12:59:38;;;;;;;15.35;13.27;;;8.20;99.90;;;;;;5073868;28;20245;-64
2021/12/13 13:02:09;;;;;;;17.95;15.23;;;8.30;99.90;;;;;;5072788;28;20306;-64
2021/12/13 13:04:41;;;;;;;15.15;13.55;;;8.40;99.90;;;;;;5072695;28;20214;-64
2021/12/13 13:07:12;;;;;;;12.93;11.70;;;8.50;99.90;;;;;;5073628;28;20264;-64
2021/12/13 13:09:47;;;;;;;15.20;13.35;;;8.50;99.90;;;;;;5073461;28;20230;-64
2021/12/13 13:12:18;;;;;;;14.32;12.88;;;8.40;99.90;;;;;;5072778;28;20715;-64
2021/12/13 13:14:49;;;;;;;15.82;14.15;;;8.40;99.90;;;;;;5065268;28;20257;-64
2021/12/13 13:17:22;;;;;;;16.08;13.05;;;8.40;99.90;;;;;;5073429;28;20333;-64
2021/12/13 13:19:55;;;;;;;13.52;12.23;;;8.40;99.90;;;;;;5073250;28;20630;-64